createdAt,value
2022-08-28T00:00:53.149Z,101174.75
2022-08-28T00:03:39.767Z,101182.69
2022-08-28T00:06:21.219Z,101185.50
2022-08-28T00:09:08.213Z,101173.19
2022-08-28T00:11:54.790Z,101171.47
2022-08-28T00:14:43.754Z,101166.00
2022-08-28T00:17:25.055Z,101181.94
2022-08-28T00:20:16.172Z,101167.84
2022-08-28T00:23:10.667Z,101171.47
2022-08-28T00:25:57.837Z,101171.53
2022-08-28T00:28:40.410Z,101167.16
2022-08-28T00:31:29.276Z,101175.91
2022-08-28T00:34:09.778Z,101166.22
2022-08-28T00:36:56.802Z,101171.56
2022-08-28T00:39:39.455Z,101173.47
2022-08-28T00:42:31.034Z,101175.22
2022-08-28T00:45:13.437Z,101174.34
2022-08-28T00:48:01.763Z,101167.28
2022-08-28T00:51:01.712Z,101172.72
2022-08-28T00:53:48.809Z,101168.38
2022-08-28T00:56:35.250Z,101167.53
2022-08-28T00:59:25.797Z,101164.06
2022-08-28T01:02:07.658Z,101172.09
2022-08-28T01:04:58.058Z,101167.53
2022-08-28T01:07:41.924Z,101166.84
2022-08-28T01:10:30.856Z,101167.88
2022-08-28T01:13:11.717Z,101172.28
2022-08-28T01:16:03.726Z,101166.09
2022-08-28T01:18:44.899Z,101182.03
2022-08-28T01:21:52.684Z,101167.03
2022-08-28T01:24:42.521Z,101163.53
2022-08-28T01:27:24.260Z,101162.69
2022-08-28T01:30:12.904Z,101160.97
2022-08-28T01:33:01.877Z,101171.56
2022-08-28T01:35:52.115Z,101170.78
2022-08-28T01:38:35.571Z,101163.72
2022-08-28T01:41:23.745Z,101168.13
2022-08-28T01:44:05.354Z,101170.78
2022-08-28T01:46:55.064Z,101164.88
2022-08-28T01:49:36.296Z,101166.50
2022-08-28T01:52:26.460Z,101164.72
2022-08-28T01:55:07.820Z,101169.31
2022-08-28T01:58:01.241Z,101164.00
2022-08-28T02:00:42.090Z,101172.16
2022-08-28T02:03:32.107Z,101173.84
2022-08-28T02:06:13.842Z,101171.00
2022-08-28T02:09:01.981Z,101171.03
2022-08-28T02:11:45.328Z,101185.31
2022-08-28T02:14:35.249Z,101179.16
2022-08-28T02:17:16.099Z,101186.41
2022-08-28T02:20:11.162Z,101189.06
2022-08-28T02:23:04.748Z,101189.00
2022-08-28T02:25:56.077Z,101184.69
2022-08-28T02:28:37.537Z,101185.59
2022-08-28T02:31:27.013Z,101189.97
2022-08-28T02:34:11.127Z,101176.97
2022-08-28T02:36:59.756Z,101187.66
2022-08-28T02:39:40.885Z,101190.19
2022-08-28T02:42:29.196Z,101184.25
2022-08-28T02:45:11.845Z,101196.47
2022-08-28T02:48:02.335Z,101191.13
2022-08-28T02:50:45.467Z,101192.00
2022-08-28T02:53:33.777Z,101186.88
2022-08-28T02:56:16.710Z,101194.69
2022-08-28T02:59:05.479Z,101189.31
2022-08-28T03:01:46.923Z,101184.78
2022-08-28T03:04:34.759Z,101192.00
2022-08-28T03:07:17.026Z,101194.75
2022-08-28T03:10:06.041Z,101191.22
2022-08-28T03:12:46.910Z,101194.06
2022-08-28T03:15:34.131Z,101194.78
2022-08-28T03:18:18.051Z,101189.75
2022-08-28T03:21:09.810Z,101196.06
2022-08-28T03:23:58.232Z,101195.44
2022-08-28T03:26:39.022Z,101200.94
2022-08-28T03:29:28.463Z,101198.31
2022-08-28T03:32:08.878Z,101190.34
2022-08-28T03:34:55.872Z,101195.59
2022-08-28T03:37:41.364Z,101196.38
2022-08-28T03:40:28.345Z,101191.97
2022-08-28T03:43:09.925Z,101198.09
2022-08-28T03:46:02.990Z,101193.63
2022-08-28T03:48:45.138Z,101197.97
2022-08-28T03:51:39.441Z,101191.81
2022-08-28T03:54:20.571Z,101203.53
2022-08-28T03:57:09.903Z,101202.72
2022-08-28T03:59:54.561Z,101198.41
2022-08-28T04:02:46.320Z,101194.75
2022-08-28T04:05:35.554Z,101196.53
2022-08-28T04:08:26.098Z,101198.31
2022-08-28T04:11:08.191Z,101203.59
2022-08-28T04:13:55.953Z,101201.94
2022-08-28T04:16:37.643Z,101201.94
2022-08-28T04:19:26.079Z,101200.06
2022-08-28T04:22:20.799Z,101204.47
2022-08-28T04:25:11.896Z,101199.19
2022-08-28T04:27:52.842Z,101200.34
2022-08-28T04:30:41.348Z,101203.03
2022-08-28T04:33:22.441Z,101197.91
2022-08-28T04:36:11.930Z,101205.84
2022-08-28T04:38:54.125Z,101204.78
2022-08-28T04:41:42.171Z,101202.19
2022-08-28T04:44:23.211Z,101195.28
2022-08-28T04:47:09.931Z,101201.56
2022-08-28T04:49:51.751Z,101198.03
2022-08-28T04:52:43.244Z,101206.03
2022-08-28T04:55:53.685Z,101204.22
2022-08-28T04:58:34.395Z,101194.50
2022-08-28T05:01:22.867Z,101193.81
2022-08-28T05:04:14.915Z,101190.38
2022-08-28T05:06:56.593Z,101202.59
2022-08-28T05:09:43.978Z,101206.91
2022-08-28T05:12:25.875Z,101204.38
2022-08-28T05:15:14.307Z,101205.38
2022-08-28T05:17:57.031Z,101210.66
2022-08-28T05:20:51.996Z,101221.28
2022-08-28T05:23:50.106Z,101213.44
2022-08-28T05:26:41.003Z,101225.50
2022-08-28T05:29:29.362Z,101224.47
2022-08-28T05:32:15.986Z,101234.72
2022-08-28T05:34:57.905Z,101229.47
2022-08-28T05:37:46.632Z,101220.66
2022-08-28T05:40:31.505Z,101232.97
2022-08-28T05:43:20.969Z,101232.94
2022-08-28T05:46:06.897Z,101236.28
2022-08-28T05:48:54.443Z,101243.41
2022-08-28T05:51:36.450Z,101243.28
2022-08-28T05:54:23.011Z,101246.59
2022-08-28T05:57:06.252Z,101247.13
2022-08-28T05:59:54.159Z,101246.09
2022-08-28T06:02:38.855Z,101247.69
2022-08-28T06:05:25.971Z,101241.16
2022-08-28T06:08:06.897Z,101248.41
2022-08-28T06:10:56.516Z,101248.06
2022-08-28T06:13:38.698Z,101254.38
2022-08-28T06:16:27.103Z,101253.53
2022-08-28T06:19:12.852Z,101259.72
2022-08-28T06:22:07.325Z,101260.34
2022-08-28T06:24:57.380Z,101265.69
2022-08-28T06:27:39.383Z,101260.00
2022-08-28T06:30:26.276Z,101257.28
2022-08-28T06:33:06.983Z,101284.19
2022-08-28T06:35:59.884Z,101275.31
2022-08-28T06:38:46.467Z,101275.09
2022-08-28T06:41:34.075Z,101282.28
2022-08-28T06:44:20.077Z,101280.91
2022-08-28T06:47:06.976Z,101288.47
2022-08-28T06:49:49.992Z,101294.53
2022-08-28T06:52:37.974Z,101286.09
2022-08-28T06:55:22.800Z,101284.25
2022-08-28T06:58:12.977Z,101291.59
2022-08-28T07:01:02.316Z,101291.00
2022-08-28T07:03:54.234Z,101296.72
2022-08-28T07:06:39.048Z,101303.56
2022-08-28T07:09:26.989Z,101298.31
2022-08-28T07:12:09.107Z,101302.78
2022-08-28T07:14:57.058Z,101307.13
2022-08-28T07:17:38.361Z,101306.31
2022-08-28T07:20:27.656Z,101302.00
2022-08-28T07:23:21.882Z,101306.34
2022-08-28T07:26:13.480Z,101302.09
2022-08-28T07:29:09.626Z,101304.00
2022-08-28T07:32:03.320Z,101303.44
2022-08-28T07:34:46.034Z,101306.13
2022-08-28T07:37:36.235Z,101289.00
2022-08-28T07:40:23.075Z,101295.66
2022-08-28T07:43:31.681Z,101303.91
2022-08-28T07:46:17.132Z,101308.88
2022-08-28T07:49:06.282Z,101299.50
2022-08-28T07:51:48.451Z,101296.38
2022-08-28T07:54:37.703Z,101292.66
2022-08-28T07:57:21.173Z,101283.56
2022-08-28T08:00:11.009Z,101293.56
2022-08-28T08:02:52.070Z,101292.56
2022-08-28T08:05:40.426Z,101301.91
2022-08-28T08:08:21.446Z,101312.28
2022-08-28T08:11:21.280Z,101308.41
2022-08-28T08:14:09.353Z,101314.84
2022-08-28T08:17:01.200Z,101314.66
2022-08-28T08:19:44.079Z,101311.75
2022-08-28T08:22:32.042Z,101303.84
2022-08-28T08:25:21.762Z,101305.72
2022-08-28T08:28:06.701Z,101301.38
2022-08-28T08:31:00.408Z,101305.66
2022-08-28T08:33:45.708Z,101306.91
2022-08-28T08:36:46.744Z,101310.53
2022-08-28T08:39:40.807Z,101301.78
2022-08-28T08:42:39.642Z,101297.09
2022-08-28T08:45:26.928Z,101295.03
2022-08-28T08:48:46.092Z,101306.66
2022-08-28T08:51:47.197Z,101301.91
2022-08-28T08:54:36.096Z,101306.03
2022-08-28T08:57:21.164Z,101308.06
2022-08-28T09:00:16.078Z,101299.97
2022-08-28T09:03:07.910Z,101301.25
2022-08-28T09:06:07.088Z,101296.66
2022-08-28T09:08:52.394Z,101303.38
2022-08-28T09:12:03.671Z,101293.09
2022-08-28T09:15:15.994Z,101303.97
2022-08-28T09:18:16.278Z,101296.66
2022-08-28T09:21:00.386Z,101303.25
2022-08-28T09:23:54.960Z,101297.44
2022-08-28T09:26:42.791Z,101298.94
2022-08-28T09:29:26.790Z,101299.38
2022-08-28T09:32:25.057Z,101296.88
2022-08-28T09:35:14.956Z,101297.88
2022-08-28T09:38:03.204Z,101289.16
2022-08-28T09:41:03.598Z,101287.19
2022-08-28T09:43:55.819Z,101283.84
2022-08-28T09:46:45.019Z,101290.44
2022-08-28T09:49:37.744Z,101280.31
2022-08-28T09:52:27.147Z,101285.41
2022-08-28T09:55:24.559Z,101284.50
2022-08-28T09:58:05.294Z,101279.44
2022-08-28T10:01:02.501Z,101284.34
2022-08-28T10:04:02.224Z,101295.50
2022-08-28T10:07:05.180Z,101302.50
2022-08-28T10:10:11.961Z,101302.13
2022-08-28T10:13:24.039Z,101297.56
2022-08-28T10:16:21.262Z,101298.16
2022-08-28T10:19:30.075Z,101303.66
2022-08-28T10:22:35.192Z,101282.28
2022-08-28T10:25:40.394Z,101289.44
2022-08-28T10:28:36.203Z,101290.72
2022-08-28T10:31:46.590Z,101284.50
2022-08-28T10:34:43.599Z,101265.31
2022-08-28T10:38:03.065Z,101270.25
2022-08-28T10:41:06.174Z,101275.25
2022-08-28T10:44:00.414Z,101273.13
2022-08-28T10:46:50.275Z,101274.06
2022-08-28T10:49:53.308Z,101268.88
2022-08-28T10:52:40.204Z,101276.59
2022-08-28T10:55:42.150Z,101280.16
2022-08-28T10:58:25.703Z,101278.72
2022-08-28T11:01:32.329Z,101272.44
2022-08-28T11:04:25.521Z,101272.13
2022-08-28T11:07:27.056Z,101277.25
2022-08-28T11:10:42.009Z,101290.41
2022-08-28T11:13:51.345Z,101277.41
2022-08-28T11:16:36.551Z,101276.78
2022-08-28T11:19:44.567Z,101277.88
2022-08-28T11:22:36.371Z,101274.44
2022-08-28T11:25:49.784Z,101273.41
2022-08-28T11:28:31.425Z,101275.75
2022-08-28T11:31:29.409Z,101276.94
2022-08-28T11:34:13.180Z,101269.53
2022-08-28T11:37:06.098Z,101268.13
2022-08-28T11:39:47.258Z,101269.66
2022-08-28T11:42:43.274Z,101270.56
2022-08-28T11:45:51.461Z,101269.97
2022-08-28T11:48:46.151Z,101269.50
2022-08-28T11:51:36.440Z,101266.09
2022-08-28T11:54:40.713Z,101269.00
2022-08-28T11:57:31.475Z,101269.31
2022-08-28T12:00:55.088Z,101258.81
2022-08-28T12:04:07.430Z,101255.09
2022-08-28T12:07:01.640Z,101259.25
2022-08-28T12:09:52.809Z,101259.06
2022-08-28T12:12:53.074Z,101261.50
2022-08-28T12:15:35.232Z,101265.31
2022-08-28T12:18:45.143Z,101256.41
2022-08-28T12:21:31.271Z,101250.69
2022-08-28T12:24:35.820Z,101263.25
2022-08-28T12:27:24.201Z,101269.63
2022-08-28T12:30:08.826Z,101254.88
2022-08-28T12:33:57.340Z,101249.09
2022-08-28T12:36:40.133Z,101257.69
2022-08-28T12:39:27.181Z,101265.09
2022-08-28T12:42:10.143Z,101259.94
2022-08-28T12:44:57.258Z,101253.03
2022-08-28T12:47:41.277Z,101274.75
2022-08-28T12:50:33.250Z,101261.16
2022-08-28T12:53:21.614Z,101255.97
2022-08-28T12:56:10.266Z,101244.91
2022-08-28T12:58:53.186Z,101245.06
2022-08-28T13:01:41.866Z,101245.94
2022-08-28T13:04:52.214Z,101233.91
2022-08-28T13:07:44.694Z,101238.53
2022-08-28T13:10:39.951Z,101245.59
2022-08-28T13:13:29.218Z,101247.41
2022-08-28T13:16:18.153Z,101233.00
2022-08-28T13:19:12.641Z,101214.16
2022-08-28T13:21:58.522Z,101224.56
2022-08-28T13:25:02.118Z,101228.72
2022-08-28T13:27:50.177Z,101229.38
2022-08-28T13:30:41.343Z,101221.03
2022-08-28T13:33:32.162Z,101227.88
2022-08-28T13:36:29.234Z,101228.19
2022-08-28T13:39:18.577Z,101217.94
2022-08-28T13:42:05.251Z,101217.88
2022-08-28T13:45:00.935Z,101213.91
2022-08-28T13:47:42.523Z,101208.50
2022-08-28T13:50:30.180Z,101210.06
2022-08-28T13:53:12.101Z,101209.19
2022-08-28T13:56:03.197Z,101225.59
2022-08-28T13:58:47.846Z,101211.97
2022-08-28T14:02:04.765Z,101205.16
2022-08-28T14:04:46.807Z,101221.63
2022-08-28T14:07:36.753Z,101222.59
2022-08-28T14:10:17.304Z,101224.16
2022-08-28T14:13:04.163Z,101212.75
2022-08-28T14:15:45.899Z,101199.81
2022-08-28T14:18:35.617Z,101200.44
2022-08-28T14:21:17.008Z,101195.16
2022-08-28T14:24:12.157Z,101188.63
2022-08-28T14:27:02.757Z,101195.06
2022-08-28T14:29:44.224Z,101179.50
2022-08-28T14:32:32.255Z,101188.22
2022-08-28T14:35:13.554Z,101179.88
2022-08-28T14:38:02.556Z,101170.88
2022-08-28T14:40:45.217Z,101172.06
2022-08-28T14:43:36.339Z,101171.75
2022-08-28T14:46:27.304Z,101169.69
2022-08-28T14:49:17.335Z,101181.47
2022-08-28T14:52:00.153Z,101172.31
2022-08-28T14:54:49.320Z,101164.91
2022-08-28T14:57:31.170Z,101168.44
2022-08-28T15:00:19.493Z,101167.66
2022-08-28T15:03:00.319Z,101166.88
2022-08-28T15:05:48.305Z,101178.38
2022-08-28T15:08:31.310Z,101181.03
2022-08-28T15:11:23.091Z,101172.31
2022-08-28T15:14:05.370Z,101169.53
2022-08-28T15:16:55.451Z,101163.72
2022-08-28T15:19:37.942Z,101153.81
2022-08-28T15:22:27.650Z,101154.66
2022-08-28T15:25:16.205Z,101154.66
2022-08-28T15:27:57.323Z,101154.66
2022-08-28T15:30:46.592Z,101162.19
2022-08-28T15:33:28.215Z,101153.31
2022-08-28T15:36:17.202Z,101160.06
2022-08-28T15:39:17.052Z,101149.22
2022-08-28T15:42:10.268Z,101149.31
2022-08-28T15:44:51.814Z,101153.75
2022-08-28T15:47:38.483Z,101151.19
2022-08-28T15:50:25.366Z,101146.22
2022-08-28T15:53:18.098Z,101153.50
2022-08-28T15:55:59.429Z,101150.28
2022-08-28T15:58:47.327Z,101149.09
2022-08-28T16:01:28.453Z,101148.72
2022-08-28T16:04:18.580Z,101148.22
2022-08-28T16:07:00.913Z,101156.25
2022-08-28T16:09:49.327Z,101152.50
2022-08-28T16:12:32.731Z,101155.81
2022-08-28T16:15:22.801Z,101160.09
2022-08-28T16:18:03.539Z,101161.84
2022-08-28T16:20:52.268Z,101169.88
2022-08-28T16:23:47.201Z,101161.94
2022-08-28T16:26:36.447Z,101151.06
2022-08-28T16:29:18.209Z,101138.38
2022-08-28T16:32:06.264Z,101139.66
2022-08-28T16:34:48.473Z,101138.94
2022-08-28T16:37:39.666Z,101128.31
2022-08-28T16:40:21.920Z,101129.81
2022-08-28T16:43:10.732Z,101131.78
2022-08-28T16:45:53.003Z,101125.88
2022-08-28T16:48:45.237Z,101126.13
2022-08-28T16:51:27.498Z,101128.72
2022-08-28T16:54:18.326Z,101123.47
2022-08-28T16:57:00.403Z,101130.38
2022-08-28T16:59:48.397Z,101116.75
2022-08-28T17:02:35.246Z,101117.22
2022-08-28T17:05:27.755Z,101120.22
2022-08-28T17:08:08.356Z,101121.13
2022-08-28T17:10:57.612Z,101113.72
2022-08-28T17:13:39.681Z,101124.13
2022-08-28T17:16:27.453Z,101114.94
2022-08-28T17:19:08.410Z,101117.91
2022-08-28T17:22:18.279Z,101120.66
2022-08-28T17:25:16.094Z,101114.72
2022-08-28T17:27:57.784Z,101119.47
2022-08-28T17:30:45.563Z,101110.41
2022-08-28T17:33:26.261Z,101121.28
2022-08-28T17:36:32.560Z,101118.59
2022-08-28T17:39:19.434Z,101123.84
2022-08-28T17:42:07.404Z,101124.81
2022-08-28T17:44:50.361Z,101118.53
2022-08-28T17:47:39.420Z,101123.63
2022-08-28T17:50:21.092Z,101118.19
2022-08-28T17:53:08.936Z,101120.78
2022-08-28T17:55:49.292Z,101112.91
2022-08-28T17:58:37.694Z,101116.00
2022-08-28T18:01:18.389Z,101119.91
2022-08-28T18:04:06.507Z,101120.94
2022-08-28T18:06:47.707Z,101122.03
2022-08-28T18:09:35.445Z,101118.47
2022-08-28T18:12:17.247Z,101117.44
2022-08-28T18:15:04.413Z,101116.25
2022-08-28T18:17:46.699Z,101116.97
2022-08-28T18:20:35.988Z,101128.06
2022-08-28T18:23:17.323Z,101124.75
2022-08-28T18:26:04.410Z,101120.91
2022-08-28T18:28:46.289Z,101123.00
2022-08-28T18:31:35.744Z,101121.00
2022-08-28T18:34:18.678Z,101129.28
2022-08-28T18:37:06.408Z,101126.47
2022-08-28T18:39:47.297Z,101128.69
2022-08-28T18:42:38.786Z,101129.22
2022-08-28T18:45:20.132Z,101123.63
2022-08-28T18:48:08.400Z,101115.06
2022-08-28T18:50:49.716Z,101116.13
2022-08-28T18:53:39.282Z,101117.44
2022-08-28T18:56:24.730Z,101126.88
2022-08-28T18:59:15.474Z,101131.13
2022-08-28T19:01:56.520Z,101133.59
2022-08-28T19:04:45.634Z,101137.88
2022-08-28T19:07:26.767Z,101146.03
2022-08-28T19:10:28.350Z,101137.94
2022-08-28T19:13:14.340Z,101141.75
2022-08-28T19:16:01.940Z,101145.16
2022-08-28T19:18:43.715Z,101152.13
2022-08-28T19:21:32.551Z,101147.34
2022-08-28T19:24:29.345Z,101161.53
2022-08-28T19:27:17.616Z,101164.63
2022-08-28T19:30:00.843Z,101160.47
2022-08-28T19:32:50.465Z,101162.38
2022-08-28T19:35:31.751Z,101163.06
2022-08-28T19:38:20.092Z,101166.13
2022-08-28T19:41:03.122Z,101171.06
2022-08-28T19:43:53.451Z,101170.59
2022-08-28T19:46:34.408Z,101170.94
2022-08-28T19:49:22.535Z,101167.88
2022-08-28T19:52:04.745Z,101176.31
2022-08-28T19:54:52.536Z,101187.56
2022-08-28T19:57:36.726Z,101187.13
2022-08-28T20:00:33.016Z,101185.69
2022-08-28T20:03:13.381Z,101182.50
2022-08-28T20:06:03.975Z,101186.53
2022-08-28T20:08:46.555Z,101190.16
2022-08-28T20:11:34.011Z,101186.34
2022-08-28T20:14:15.453Z,101176.16
2022-08-28T20:17:05.055Z,101196.38
2022-08-28T20:19:46.423Z,101190.69
2022-08-28T20:22:35.457Z,101201.09
2022-08-28T20:25:26.123Z,101196.22
2022-08-28T20:28:07.551Z,101200.69
2022-08-28T20:30:58.156Z,101197.97
2022-08-28T20:33:39.870Z,101206.72
2022-08-28T20:36:30.927Z,101204.53
2022-08-28T20:39:12.583Z,101202.75
2022-08-28T20:42:00.772Z,101207.28
2022-08-28T20:44:42.527Z,101204.22
2022-08-28T20:47:31.562Z,101212.03
2022-08-28T20:50:12.619Z,101201.00
2022-08-28T20:53:00.411Z,101202.88
2022-08-28T20:55:41.887Z,101200.28
2022-08-28T20:58:28.870Z,101209.03
2022-08-28T21:01:10.599Z,101219.03
2022-08-28T21:03:58.779Z,101216.13
2022-08-28T21:06:41.578Z,101232.53
2022-08-28T21:10:02.246Z,101227.19
2022-08-28T21:12:31.561Z,101222.88
2022-08-28T21:15:21.211Z,101231.69
2022-08-28T21:18:04.294Z,101233.09
2022-08-28T21:20:53.295Z,101244.63
2022-08-28T21:23:34.567Z,101235.53
2022-08-28T21:26:21.460Z,101236.63
2022-08-28T21:29:03.269Z,101234.13
2022-08-28T21:31:53.598Z,101232.41
2022-08-28T21:34:34.543Z,101240.75
2022-08-28T21:37:22.484Z,101236.56
2022-08-28T21:40:04.018Z,101246.88
2022-08-28T21:42:53.829Z,101243.44
2022-08-28T21:45:34.627Z,101244.63
2022-08-28T21:48:24.314Z,101245.41
2022-08-28T21:51:05.877Z,101252.41
2022-08-28T21:53:54.448Z,101237.09
2022-08-28T21:56:35.552Z,101254.88
2022-08-28T21:59:23.886Z,101256.81
2022-08-28T22:02:07.576Z,101260.94
2022-08-28T22:04:56.849Z,101261.19
2022-08-28T22:07:37.572Z,101261.03
2022-08-28T22:10:25.468Z,101259.09
2022-08-28T22:13:06.782Z,101261.22
2022-08-28T22:15:54.427Z,101256.25
2022-08-28T22:18:35.556Z,101262.84
2022-08-28T22:21:47.334Z,101259.47
2022-08-28T22:24:44.440Z,101256.88
2022-08-28T22:27:35.529Z,101259.41
2022-08-28T22:30:16.914Z,101255.38
2022-08-28T22:33:03.495Z,101259.91
2022-08-28T22:35:44.631Z,101259.31
2022-08-28T22:38:36.500Z,101262.63
2022-08-28T22:41:17.541Z,101257.75
2022-08-28T22:44:05.571Z,101265.50
2022-08-28T22:46:46.948Z,101261.53
2022-08-28T22:49:39.724Z,101267.03
2022-08-28T22:52:20.650Z,101267.34
2022-08-28T22:55:09.449Z,101258.69
2022-08-28T22:57:52.723Z,101262.19
2022-08-28T23:00:41.284Z,101257.84
2022-08-28T23:03:22.659Z,101257.06
2022-08-28T23:06:11.586Z,101256.06
2022-08-28T23:08:53.755Z,101251.28
2022-08-28T23:11:44.348Z,101249.56
2022-08-28T23:14:26.842Z,101253.03
2022-08-28T23:17:14.477Z,101257.81
2022-08-28T23:20:00.335Z,101260.81
2022-08-28T23:22:48.475Z,101254.03
2022-08-28T23:25:42.462Z,101261.97
2022-08-28T23:28:30.448Z,101266.56
2022-08-28T23:31:11.593Z,101259.22
2022-08-28T23:33:58.523Z,101263.66
2022-08-28T23:36:42.988Z,101255.03
2022-08-28T23:39:32.549Z,101259.56
2022-08-28T23:42:16.958Z,101255.78
2022-08-28T23:45:06.607Z,101262.81
2022-08-28T23:47:47.616Z,101260.13
2022-08-28T23:50:35.548Z,101250.41
2022-08-28T23:53:18.060Z,101255.50
2022-08-28T23:56:07.696Z,101262.50
2022-08-28T23:58:48.585Z,101261.78
